Eugenio de Castro, Brazil
Current Conditions -  °F | °C
As of 7:00 AM on Saturday 20 Dec 2014 (Local Time) from SBSM Reporting Station
Clear Clear  
Wind Chill: 64°   Ceiling: Unl
Heat Index: 64°   Visibility: 6mi
Dew Point: 64°   Wind: 5mph
Humidity: 100%   Direction: 100°E
Pressure: 29.65"   Gusts: NA
Location:  28.53°S, 54.15°W
Report Text: SBSM 200900Z 10004KT CAVOK 18/18 Q1004
Loading
Personal Weather Stations






























Interactive Weather Map New forecast layout! Learn more

10-Day Weather Forecast

Advertisements
Track Severe Weather on mobile